createdAt,value
2023-03-29T00:00:14.400Z,4.00
2023-03-29T00:02:36.859Z,3.33
2023-03-29T00:05:03.934Z,3.60
2023-03-29T00:07:26.171Z,3.60
2023-03-29T00:09:48.518Z,4.10
2023-03-29T00:12:11.658Z,3.63
2023-03-29T00:14:33.924Z,3.60
2023-03-29T00:16:56.245Z,3.23
2023-03-29T00:19:18.550Z,3.77
2023-03-29T00:21:40.908Z,3.47
2023-03-29T00:24:03.116Z,3.53
2023-03-29T00:26:25.398Z,3.57
2023-03-29T00:28:47.743Z,3.80
2023-03-29T00:31:11.522Z,3.40
2023-03-29T00:33:33.979Z,3.10
2023-03-29T00:35:56.233Z,3.87
2023-03-29T00:38:19.105Z,3.47
2023-03-29T00:40:42.673Z,3.70
2023-03-29T00:43:06.310Z,3.70
2023-03-29T00:45:33.886Z,3.80
2023-03-29T00:47:59.968Z,3.80
2023-03-29T00:50:29.642Z,3.70
2023-03-29T00:52:54.802Z,3.73
2023-03-29T00:55:21.680Z,4.33
2023-03-29T00:57:46.517Z,4.00
2023-03-29T01:00:10.207Z,4.03
2023-03-29T01:02:34.831Z,4.00
2023-03-29T01:05:05.523Z,3.93
2023-03-29T01:07:30.782Z,4.33
2023-03-29T01:09:59.397Z,3.40
2023-03-29T01:12:23.138Z,3.60
2023-03-29T01:14:57.367Z,3.70
2023-03-29T01:17:21.832Z,3.70
2023-03-29T01:19:50.232Z,3.63
2023-03-29T01:22:26.055Z,3.63
2023-03-29T01:25:03.684Z,4.40
2023-03-29T01:27:31.751Z,3.63
2023-03-29T01:29:57.915Z,3.80
2023-03-29T01:32:50.413Z,4.23
2023-03-29T01:35:19.030Z,4.10
2023-03-29T01:37:56.672Z,4.67
2023-03-29T01:40:19.014Z,4.13
2023-03-29T01:42:51.349Z,4.43
2023-03-29T01:45:13.589Z,3.80
2023-03-29T01:47:56.347Z,3.90
2023-03-29T01:50:21.320Z,4.33
2023-03-29T01:52:46.506Z,3.63
2023-03-29T01:55:12.867Z,3.90
2023-03-29T01:57:39.557Z,4.03
2023-03-29T02:00:15.017Z,4.23
2023-03-29T02:02:38.565Z,4.20
2023-03-29T02:05:01.580Z,3.63
2023-03-29T02:07:26.574Z,3.73
2023-03-29T02:09:49.849Z,3.63
2023-03-29T02:12:12.902Z,3.47
2023-03-29T02:14:35.594Z,4.00
2023-03-29T02:16:57.846Z,3.90
2023-03-29T02:19:21.785Z,4.20
2023-03-29T02:21:48.322Z,4.50
2023-03-29T02:24:13.289Z,3.83
2023-03-29T02:26:36.284Z,3.77
2023-03-29T02:28:58.829Z,3.70
2023-03-29T02:31:24.942Z,4.33
2023-03-29T02:33:53.004Z,4.50
2023-03-29T02:36:20.838Z,4.13
2023-03-29T02:38:46.525Z,3.60
2023-03-29T02:41:09.420Z,3.90
2023-03-29T02:43:32.350Z,4.13
2023-03-29T02:45:55.276Z,4.27
2023-03-29T02:48:19.738Z,4.57
2023-03-29T02:50:43.650Z,4.00
2023-03-29T02:53:32.385Z,4.47
2023-03-29T02:55:55.654Z,4.53
2023-03-29T02:58:17.865Z,4.60
2023-03-29T03:00:44.706Z,3.90
2023-03-29T03:03:11.748Z,4.20
2023-03-29T03:05:34.586Z,4.13
2023-03-29T03:07:58.325Z,4.60
2023-03-29T03:10:20.514Z,4.60
2023-03-29T03:12:42.754Z,5.00
2023-03-29T03:15:05.823Z,4.47
2023-03-29T03:17:28.377Z,4.13
2023-03-29T03:19:51.368Z,4.50
2023-03-29T03:22:13.746Z,4.97
2023-03-29T03:24:36.008Z,4.90
2023-03-29T03:26:58.405Z,5.07
2023-03-29T03:29:20.828Z,4.43
2023-03-29T03:32:09.856Z,5.13
2023-03-29T03:34:50.521Z,4.97
2023-03-29T03:37:12.981Z,5.20
2023-03-29T03:39:35.372Z,5.73
2023-03-29T03:41:59.066Z,4.50
2023-03-29T03:44:21.982Z,4.47
2023-03-29T03:46:55.598Z,4.50
2023-03-29T03:49:19.222Z,4.40
2023-03-29T03:51:44.363Z,4.67
2023-03-29T03:54:08.095Z,4.70
2023-03-29T03:56:30.307Z,4.40
2023-03-29T03:58:52.794Z,4.50
2023-03-29T04:01:16.984Z,4.30
2023-03-29T04:03:48.737Z,4.87
2023-03-29T04:06:13.541Z,5.10
2023-03-29T04:09:05.577Z,4.40
2023-03-29T04:11:34.668Z,4.10
2023-03-29T04:13:57.901Z,4.80
2023-03-29T04:16:24.859Z,6.10
2023-03-29T04:18:47.848Z,5.13
2023-03-29T04:21:10.522Z,5.20
2023-03-29T04:23:33.304Z,5.20
2023-03-29T04:25:59.362Z,5.10
2023-03-29T04:28:42.522Z,5.20
2023-03-29T04:31:12.144Z,5.13
2023-03-29T04:33:42.622Z,4.93
2023-03-29T04:36:05.900Z,4.90
2023-03-29T04:38:28.195Z,5.57
2023-03-29T04:40:51.126Z,4.80
2023-03-29T04:43:20.223Z,5.03
2023-03-29T04:45:51.352Z,5.00
2023-03-29T04:48:31.542Z,4.83
2023-03-29T04:50:54.413Z,5.83
2023-03-29T04:53:17.057Z,5.50
2023-03-29T04:55:39.730Z,5.83
2023-03-29T04:58:04.868Z,6.30
2023-03-29T05:00:29.071Z,5.87
2023-03-29T05:02:51.552Z,6.63
2023-03-29T05:05:14.710Z,6.53
2023-03-29T05:07:37.951Z,6.10
2023-03-29T05:10:00.209Z,6.07
2023-03-29T05:12:22.645Z,6.13
2023-03-29T05:14:48.827Z,6.33
2023-03-29T05:17:11.408Z,6.10
2023-03-29T05:19:33.794Z,5.93
2023-03-29T05:21:56.059Z,6.63
2023-03-29T05:24:19.882Z,5.67
2023-03-29T05:26:53.346Z,5.40
2023-03-29T05:29:16.051Z,5.83
2023-03-29T05:31:41.656Z,6.07
2023-03-29T05:34:05.458Z,5.60
2023-03-29T05:36:30.186Z,5.70
2023-03-29T05:38:52.472Z,5.83
2023-03-29T05:41:17.909Z,6.37
2023-03-29T05:43:58.554Z,5.33
2023-03-29T05:46:21.685Z,5.77
2023-03-29T05:48:47.559Z,6.03
2023-03-29T05:51:10.718Z,5.80
2023-03-29T05:53:33.243Z,6.63
2023-03-29T05:55:56.146Z,6.57
2023-03-29T05:58:21.746Z,5.87
2023-03-29T06:00:44.601Z,5.23
2023-03-29T06:03:27.831Z,5.57
2023-03-29T06:06:00.528Z,5.77
2023-03-29T06:08:23.353Z,5.00
2023-03-29T06:11:24.459Z,4.90
2023-03-29T06:14:16.048Z,5.00
2023-03-29T06:16:44.910Z,4.93
2023-03-29T06:19:08.534Z,4.87
2023-03-29T06:21:32.925Z,5.23
2023-03-29T06:23:58.605Z,4.70
2023-03-29T06:26:23.985Z,4.93
2023-03-29T06:31:10.189Z,4.90
2023-03-29T06:33:37.223Z,5.63
2023-03-29T06:36:20.329Z,4.20
2023-03-29T06:38:44.251Z,5.17
2023-03-29T06:41:15.287Z,4.93
2023-03-29T06:44:04.097Z,4.70
2023-03-29T06:46:30.768Z,5.20
2023-03-29T06:48:56.415Z,5.07
2023-03-29T06:51:24.416Z,4.50
2023-03-29T06:53:46.832Z,3.90
2023-03-29T06:56:09.739Z,3.40
2023-03-29T06:58:36.319Z,3.70
2023-03-29T07:01:06.064Z,3.90
2023-03-29T07:03:44.779Z,3.70
2023-03-29T07:06:12.300Z,4.00
2023-03-29T07:08:43.131Z,3.33
2023-03-29T07:11:14.192Z,3.63
2023-03-29T07:13:43.195Z,3.40
2023-03-29T07:16:12.457Z,3.70
2023-03-29T07:18:44.004Z,3.43
2023-03-29T07:21:12.357Z,3.00
2023-03-29T07:23:36.047Z,3.60
2023-03-29T07:25:58.441Z,3.80
2023-03-29T07:28:21.874Z,3.37
2023-03-29T07:30:44.405Z,3.10
2023-03-29T07:33:09.557Z,2.90
2023-03-29T07:35:55.280Z,3.00
2023-03-29T07:38:18.546Z,3.20
2023-03-29T07:40:44.880Z,3.17
2023-03-29T07:43:25.841Z,3.63
2023-03-29T07:45:48.779Z,3.80
2023-03-29T07:48:11.448Z,3.47
2023-03-29T07:50:54.553Z,4.47
2023-03-29T07:53:21.784Z,3.60
2023-03-29T07:55:47.662Z,3.63
2023-03-29T07:58:30.573Z,2.90
2023-03-29T08:00:53.224Z,3.10
2023-03-29T08:03:47.988Z,3.10
2023-03-29T08:06:10.374Z,3.50
2023-03-29T08:08:32.658Z,2.80
2023-03-29T08:11:01.213Z,2.83
2023-03-29T08:13:35.727Z,2.50
2023-03-29T08:16:36.093Z,3.13
2023-03-29T08:19:07.106Z,3.30
2023-03-29T08:21:51.976Z,3.40
2023-03-29T08:24:17.208Z,3.10
2023-03-29T08:26:44.434Z,3.20
2023-03-29T08:29:08.424Z,3.20
2023-03-29T08:31:31.083Z,2.90
2023-03-29T08:33:53.336Z,2.80
2023-03-29T08:36:34.294Z,2.70
2023-03-29T08:39:04.085Z,3.37
2023-03-29T08:41:57.754Z,2.93
2023-03-29T08:44:26.602Z,2.80
2023-03-29T08:46:53.781Z,3.33
2023-03-29T08:49:22.653Z,3.33
2023-03-29T08:51:48.535Z,3.13
2023-03-29T08:54:14.808Z,3.13
2023-03-29T08:57:10.534Z,3.37
2023-03-29T08:59:37.759Z,3.97
2023-03-29T09:02:04.390Z,3.17
2023-03-29T09:04:32.759Z,3.13
2023-03-29T09:07:12.469Z,3.17
2023-03-29T09:09:39.318Z,3.03
2023-03-29T09:12:16.934Z,2.80
2023-03-29T09:14:48.409Z,3.10
2023-03-29T09:17:10.936Z,2.93
2023-03-29T09:19:45.493Z,3.70
2023-03-29T09:22:10.398Z,2.77
2023-03-29T09:24:33.033Z,3.37
2023-03-29T09:27:07.440Z,3.07
2023-03-29T09:29:39.344Z,2.60
2023-03-29T09:32:05.292Z,3.37
2023-03-29T09:34:31.932Z,2.90
2023-03-29T09:37:09.715Z,2.77
2023-03-29T09:39:33.819Z,3.00
2023-03-29T09:42:09.151Z,3.17
2023-03-29T09:44:36.523Z,3.10
2023-03-29T09:47:17.483Z,3.00
2023-03-29T09:49:42.002Z,2.77
2023-03-29T09:52:11.905Z,3.13
2023-03-29T09:54:39.221Z,2.88
2023-03-29T09:57:22.002Z,2.95
2023-03-29T09:59:49.575Z,3.38
2023-03-29T10:02:21.812Z,2.75
2023-03-29T10:04:45.339Z,3.28
2023-03-29T10:07:11.142Z,3.05
2023-03-29T10:09:50.635Z,3.70
2023-03-29T10:12:17.169Z,3.25
2023-03-29T10:14:44.062Z,3.72
2023-03-29T10:22:59.702Z,3.33
2023-03-29T10:25:26.102Z,3.28
2023-03-29T10:28:13.622Z,3.15
2023-03-29T10:30:37.416Z,2.70
2023-03-29T10:33:01.355Z,3.30
2023-03-29T10:35:30.079Z,3.88
2023-03-29T10:40:34.285Z,2.97
2023-03-29T10:42:59.206Z,2.85
2023-03-29T10:45:29.035Z,2.08
2023-03-29T10:47:51.776Z,2.30
2023-03-29T10:50:16.148Z,1.95
2023-03-29T10:52:42.178Z,2.13
2023-03-29T10:55:05.312Z,2.33
2023-03-29T10:58:00.364Z,2.15
2023-03-29T11:00:38.772Z,1.90
2023-03-29T11:03:22.062Z,2.05
2023-03-29T11:05:51.243Z,2.28
2023-03-29T11:08:32.676Z,2.60
2023-03-29T11:11:13.878Z,2.08
2023-03-29T11:13:51.704Z,2.55
2023-03-29T11:16:36.358Z,2.28
2023-03-29T11:18:58.990Z,2.35
2023-03-29T11:21:45.935Z,1.95
2023-03-29T11:24:13.219Z,2.35
2023-03-29T11:26:54.430Z,2.00
2023-03-29T11:29:32.375Z,2.00
2023-03-29T11:31:57.771Z,2.85
2023-03-29T11:34:25.474Z,2.03
2023-03-29T11:37:02.000Z,2.28
2023-03-29T11:39:30.230Z,2.30
2023-03-29T11:42:39.862Z,1.73
2023-03-29T11:48:14.798Z,2.45
2023-03-29T11:50:47.029Z,2.30
2023-03-29T11:53:15.454Z,2.33
2023-03-29T11:55:42.925Z,2.17
2023-03-29T11:58:16.410Z,2.15
2023-03-29T12:00:45.309Z,1.98
2023-03-29T12:03:14.316Z,2.08
2023-03-29T12:08:43.479Z,1.70
2023-03-29T12:11:09.432Z,1.80
2023-03-29T12:13:41.008Z,2.05
2023-03-29T12:16:18.684Z,2.42
2023-03-29T12:18:42.532Z,1.83
2023-03-29T12:21:07.841Z,2.53
2023-03-29T12:23:41.998Z,2.72
2023-03-29T12:26:08.676Z,2.45
2023-03-29T12:28:49.824Z,2.70
2023-03-29T12:31:17.788Z,2.15
2023-03-29T12:33:52.811Z,2.50
2023-03-29T12:36:52.614Z,2.15
2023-03-29T12:39:40.374Z,2.15
2023-03-29T12:43:10.442Z,2.30
2023-03-29T12:45:51.196Z,2.25
2023-03-29T12:48:28.528Z,2.40
2023-03-29T12:50:57.327Z,2.70
2023-03-29T12:53:19.886Z,2.22
2023-03-29T12:55:42.374Z,2.05
2023-03-29T12:58:06.694Z,2.53
2023-03-29T13:00:34.149Z,2.25
2023-03-29T13:03:09.930Z,2.20
2023-03-29T13:05:34.273Z,2.13
2023-03-29T13:07:56.828Z,2.55
2023-03-29T13:10:36.658Z,2.15
2023-03-29T13:13:09.264Z,2.30
2023-03-29T13:15:36.360Z,2.67
2023-03-29T13:18:52.363Z,2.00
2023-03-29T13:21:51.064Z,1.80
2023-03-29T13:24:24.993Z,1.90
2023-03-29T13:27:42.347Z,2.15
2023-03-29T13:30:15.720Z,2.33
2023-03-29T13:32:56.120Z,1.83
2023-03-29T13:39:36.671Z,1.98
2023-03-29T13:42:22.548Z,2.00
2023-03-29T13:45:10.157Z,2.25
2023-03-29T13:47:33.096Z,1.63
2023-03-29T13:50:07.913Z,2.08
2023-03-29T13:52:30.595Z,2.10
2023-03-29T13:55:06.581Z,1.73
2023-03-29T13:57:34.507Z,1.83
2023-03-29T14:00:12.660Z,1.73
2023-03-29T14:02:47.420Z,1.80
2023-03-29T14:05:18.473Z,1.40
2023-03-29T14:07:47.222Z,1.85
2023-03-29T14:10:19.194Z,1.98
2023-03-29T14:12:42.949Z,1.70
2023-03-29T14:15:10.733Z,1.67
2023-03-29T14:17:33.852Z,1.60
2023-03-29T14:20:00.259Z,1.88
2023-03-29T14:22:23.071Z,1.83
2023-03-29T14:24:49.403Z,2.00
2023-03-29T14:27:22.858Z,2.00
2023-03-29T14:29:49.578Z,1.63
2023-03-29T14:32:16.501Z,2.15
2023-03-29T14:34:49.052Z,1.95
2023-03-29T14:37:13.092Z,2.10
2023-03-29T14:43:11.105Z,2.13
2023-03-29T14:45:33.978Z,1.85
2023-03-29T14:47:56.814Z,1.65
2023-03-29T14:50:22.268Z,1.80
2023-03-29T14:52:47.050Z,1.80
2023-03-29T14:55:11.642Z,1.95
2023-03-29T15:00:42.630Z,1.88
2023-03-29T15:03:13.551Z,2.05
2023-03-29T15:05:44.065Z,2.28
2023-03-29T15:08:18.869Z,2.47
2023-03-29T15:11:23.231Z,2.05
2023-03-29T15:13:53.802Z,2.08
2023-03-29T15:16:49.004Z,2.40
2023-03-29T15:19:27.095Z,2.65
2023-03-29T15:22:03.901Z,2.10
2023-03-29T15:24:31.577Z,2.05
2023-03-29T15:27:01.623Z,2.17
2023-03-29T15:29:25.926Z,2.13
2023-03-29T15:35:19.952Z,2.17
2023-03-29T15:41:08.321Z,2.00
2023-03-29T15:43:31.380Z,1.83
2023-03-29T15:45:57.431Z,2.15
2023-03-29T15:48:23.031Z,2.25
2023-03-29T15:50:46.181Z,1.90
2023-03-29T15:53:31.535Z,2.42
2023-03-29T15:55:58.219Z,1.95
2023-03-29T15:58:24.232Z,1.70
2023-03-29T16:00:57.436Z,2.03
2023-03-29T16:03:49.071Z,2.45
2023-03-29T16:06:23.988Z,2.13
2023-03-29T16:08:47.011Z,1.90
2023-03-29T16:11:12.054Z,1.90
2023-03-29T16:13:34.569Z,2.00
2023-03-29T16:15:57.608Z,1.77
2023-03-29T16:18:20.329Z,1.73
2023-03-29T16:23:48.043Z,1.85
2023-03-29T16:26:12.976Z,1.80
2023-03-29T16:28:38.517Z,1.73
2023-03-29T16:31:01.017Z,2.03
2023-03-29T16:33:23.603Z,1.70
2023-03-29T16:35:53.188Z,1.52
2023-03-29T16:38:15.815Z,2.03
2023-03-29T16:40:38.629Z,1.50
2023-03-29T16:43:03.911Z,1.95
2023-03-29T16:45:27.422Z,3.25
2023-03-29T16:47:49.949Z,2.00
2023-03-29T16:50:13.554Z,1.70
2023-03-29T16:52:54.280Z,1.92
2023-03-29T16:55:19.988Z,2.00
2023-03-29T17:01:16.163Z,1.70
2023-03-29T17:03:38.994Z,1.90
2023-03-29T17:06:05.450Z,2.30
2023-03-29T17:12:02.414Z,2.50
2023-03-29T17:21:26.500Z,1.65
2023-03-29T17:24:36.176Z,2.10
2023-03-29T17:27:00.468Z,2.20
2023-03-29T17:32:26.315Z,2.15
2023-03-29T17:38:27.932Z,1.40
2023-03-29T17:43:45.882Z,1.70
2023-03-29T17:46:08.528Z,1.60
2023-03-29T17:48:37.056Z,1.67
2023-03-29T17:51:30.075Z,1.92
2023-03-29T17:53:53.012Z,2.13
2023-03-29T17:56:20.193Z,1.50
2023-03-29T17:58:46.639Z,1.88
2023-03-29T18:11:15.949Z,1.70
2023-03-29T18:13:40.020Z,1.83
2023-03-29T18:16:04.715Z,1.63
2023-03-29T18:18:27.857Z,2.08
2023-03-29T18:20:50.585Z,2.35
2023-03-29T18:24:07.381Z,1.70
2023-03-29T18:26:30.021Z,2.13
2023-03-29T18:28:53.216Z,2.22
2023-03-29T18:31:16.321Z,2.05
2023-03-29T18:33:40.816Z,2.38
2023-03-29T18:36:05.091Z,2.10
2023-03-29T18:38:27.841Z,1.65
2023-03-29T18:40:51.701Z,1.70
2023-03-29T18:43:22.043Z,2.47
2023-03-29T18:45:47.616Z,1.70
2023-03-29T18:48:38.949Z,1.45
2023-03-29T18:51:02.790Z,1.70
2023-03-29T18:53:29.876Z,1.70
2023-03-29T18:56:05.156Z,1.63
2023-03-29T18:58:28.007Z,1.67
2023-03-29T19:00:52.853Z,1.33
2023-03-29T19:03:15.592Z,1.73
2023-03-29T19:05:39.261Z,1.77
2023-03-29T19:11:05.757Z,1.48
2023-03-29T19:13:28.133Z,1.42
2023-03-29T19:15:51.964Z,1.50
2023-03-29T19:18:14.396Z,1.60
2023-03-29T19:20:36.904Z,1.50
2023-03-29T19:22:59.449Z,1.48
2023-03-29T19:25:22.527Z,1.63
2023-03-29T19:27:44.922Z,1.80
2023-03-29T19:30:07.602Z,1.75
2023-03-29T19:32:33.208Z,1.60
2023-03-29T19:34:56.273Z,1.90
2023-03-29T19:37:21.673Z,1.60
2023-03-29T19:39:59.160Z,1.48
2023-03-29T19:42:22.841Z,2.10
2023-03-29T19:44:45.691Z,1.80
2023-03-29T19:47:08.230Z,1.52
2023-03-29T19:49:30.878Z,1.40
2023-03-29T19:51:54.527Z,1.77
2023-03-29T19:54:17.346Z,2.22
2023-03-29T19:56:39.731Z,1.93
2023-03-29T19:59:02.048Z,1.90
2023-03-29T20:01:27.328Z,1.95
2023-03-29T20:03:50.217Z,1.98
2023-03-29T20:06:12.540Z,1.90
2023-03-29T20:08:38.589Z,1.83
2023-03-29T20:11:03.052Z,1.60
2023-03-29T20:13:38.124Z,1.80
2023-03-29T20:16:04.164Z,2.33
2023-03-29T20:18:26.514Z,1.70
2023-03-29T20:20:50.010Z,1.93
2023-03-29T20:23:41.330Z,2.30
2023-03-29T20:26:03.831Z,2.10
2023-03-29T20:28:26.688Z,2.30
2023-03-29T20:36:49.374Z,2.40
2023-03-29T20:39:12.239Z,2.47
2023-03-29T20:41:38.423Z,2.23
2023-03-29T20:46:54.114Z,2.10
2023-03-29T20:52:21.906Z,1.97
2023-03-29T20:54:45.760Z,2.30
2023-03-29T20:57:08.622Z,2.20
2023-03-29T20:59:31.712Z,2.03
2023-03-29T21:01:55.321Z,2.80
2023-03-29T21:04:18.751Z,2.17
2023-03-29T21:06:41.100Z,2.50
2023-03-29T21:09:04.933Z,1.97
2023-03-29T21:14:04.216Z,2.13
2023-03-29T21:16:29.112Z,2.33
2023-03-29T21:18:51.722Z,2.57
2023-03-29T21:21:14.901Z,2.60
2023-03-29T21:23:37.243Z,1.97
2023-03-29T21:25:59.502Z,2.20
2023-03-29T21:28:29.144Z,2.03
2023-03-29T21:30:51.591Z,1.93
2023-03-29T21:33:13.851Z,2.17
2023-03-29T21:35:36.419Z,1.80
2023-03-29T21:37:58.758Z,2.53
2023-03-29T21:40:21.068Z,2.37
2023-03-29T21:42:43.412Z,2.40
2023-03-29T21:45:06.244Z,2.67
2023-03-29T21:47:28.575Z,2.47
2023-03-29T21:49:51.176Z,2.47
2023-03-29T21:52:13.443Z,2.15
2023-03-29T21:54:36.093Z,2.40
2023-03-29T21:56:58.445Z,1.80
2023-03-29T21:59:20.720Z,1.95
2023-03-29T22:01:42.971Z,1.83
2023-03-29T22:04:05.310Z,2.38
2023-03-29T22:06:27.599Z,3.15
2023-03-29T22:08:53.030Z,2.47
2023-03-29T22:11:16.378Z,2.10
2023-03-29T22:13:38.919Z,2.03
2023-03-29T22:16:03.733Z,1.80
2023-03-29T22:18:27.892Z,2.30
2023-03-29T22:20:50.745Z,2.15
2023-03-29T22:23:13.360Z,2.08
2023-03-29T22:25:37.676Z,2.03
2023-03-29T22:30:46.869Z,2.95
2023-03-29T22:33:09.453Z,2.20
2023-03-29T22:36:00.506Z,2.25
2023-03-29T22:38:22.947Z,1.80
2023-03-29T22:40:45.568Z,2.50
2023-03-29T22:43:07.879Z,1.80
2023-03-29T22:45:30.243Z,2.10
2023-03-29T22:47:54.503Z,2.00
2023-03-29T22:50:19.938Z,2.07
2023-03-29T22:52:47.900Z,2.15
2023-03-29T22:55:10.421Z,2.27
2023-03-29T22:57:33.059Z,2.10
2023-03-29T22:59:55.666Z,2.00
2023-03-29T23:02:19.617Z,2.13
2023-03-29T23:04:42.391Z,2.33
2023-03-29T23:07:07.917Z,2.00
2023-03-29T23:10:07.778Z,2.73
2023-03-29T23:12:31.050Z,2.00
2023-03-29T23:14:53.684Z,3.23
2023-03-29T23:17:19.258Z,2.47
2023-03-29T23:19:41.629Z,2.20
2023-03-29T23:22:03.899Z,2.40
2023-03-29T23:24:26.198Z,2.70
2023-03-29T23:26:48.982Z,2.20
2023-03-29T23:29:11.926Z,2.30
2023-03-29T23:31:36.368Z,2.50
2023-03-29T23:33:59.076Z,2.47
2023-03-29T23:36:22.866Z,2.90
2023-03-29T23:38:46.979Z,2.30
2023-03-29T23:41:10.833Z,2.40
2023-03-29T23:43:35.143Z,2.83
2023-03-29T23:45:57.870Z,2.33
2023-03-29T23:48:20.213Z,2.90
2023-03-29T23:50:46.331Z,3.00
2023-03-29T23:53:09.302Z,2.93
2023-03-29T23:55:32.142Z,2.30
2023-03-29T23:57:54.534Z,2.43
